Weather History for KHCO - May, 2013

Change the Weather History Date:

Wednesday, May 1, 2013

  Actual Average Record
Temperature  
Mean Temperature 32 °F -  
Max Temperature 35 °F 55 °F 89 °F (1977)
Min Temperature 30 °F 34 °F 18 °F (1967)
Degree Days  
Heating Degree Days 32    
Moisture  
Dew Point 27 °F    
Average Humidity 80    
Maximum Humidity 87    
Minimum Humidity 70    
Precipitation  
Precipitation 0.00 in - - ()
Sea Level Pressure  
Sea Level Pressure 30.37 in    
Wind  
Wind Speed 16 mph (NW)    
Max Wind Speed 21 mph    
Max Gust Speed 28 mph    
Visibility 10 miles    
Events Snow    
Averages and records for this station are not official NWS values.
T = Trace of Precipitation, MM = Missing Value Source: NWS Daily Summary

Daily Weather History Graph

Daily Weather History Graph

Search for Another Location

Airport or City:

Trip Planner

Search our weather history database for the weather conditions in past years. The results will help you decide how hot, cold, wet, or windy it might be!

Date:

Astronomy

May. 01, 2013 Rise Set
Actual Time 6:07 AM CDT 8:43 PM CDT
Civil Twilight 5:31 AM CDT 9:19 PM CDT
Nautical Twilight 4:46 AM CDT 10:04 PM CDT
Astronomical Twilight 3:54 AM CDT 10:57 PM CDT
Moon 1:54 AM CDT (5/1) 11:47 AM CDT (5/1)
Length of Visible Light 15h 47m
Length of Day
14h 36m
Waning Gibbous, 59% of the Moon is Illuminated
May 1
Waning Gibbous
May 2
Last Quarter
May 9
New
May 17
First Quarter
May 24
Full

Hourly Weather History & Observations

Time (CDT) Temp. Windchill Dew Point Humidity Pressure Visibility Wind Dir Wind Speed Gust Speed Precip Events Conditions
12:13 AM 30.2 °F 17.8 °F 24.8 °F 80% 30.00 in 10.0 mi WNW 19.6 mph 26.5 mph N/A   Overcast
12:33 AM 30.2 °F 18.1 °F 24.8 °F 80% 30.01 in 10.0 mi WNW 18.4 mph 27.6 mph N/A   Overcast
1:13 AM 30.2 °F 17.8 °F 24.8 °F 80% 30.03 in 10.0 mi WNW 19.6 mph 23.0 mph N/A   Overcast
1:33 AM 30.2 °F 18.9 °F 24.8 °F 80% 30.05 in 10.0 mi WNW 16.1 mph - N/A   Overcast
2:13 AM 30.2 °F 17.4 °F 24.8 °F 80% 30.06 in 10.0 mi WNW 20.7 mph 25.3 mph N/A   Overcast
2:33 AM 30.2 °F 18.5 °F 24.8 °F 80% 30.06 in 10.0 mi WNW 17.3 mph 23.0 mph N/A   Overcast
2:53 AM 30.2 °F 18.9 °F 24.8 °F 80% 30.06 in 10.0 mi NW 16.1 mph 25.3 mph N/A   Overcast
3:13 AM 30.2 °F 17.8 °F 24.8 °F 80% 30.06 in 10.0 mi NW 19.6 mph 24.2 mph N/A   Overcast
3:33 AM 30.2 °F 17.4 °F 24.8 °F 80% 30.07 in 10.0 mi WNW 20.7 mph - N/A   Overcast
4:13 AM 30.2 °F 19.8 °F 24.8 °F 80% 30.11 in 10.0 mi NW 13.8 mph 19.6 mph N/A   Overcast
4:34 AM 30.2 °F 19.3 °F 24.8 °F 80% 30.13 in 10.0 mi NW 15.0 mph - N/A   Overcast
4:53 AM 30.2 °F 18.9 °F 26.6 °F 86% 30.14 in 10.0 mi NW 16.1 mph 20.7 mph N/A   Overcast
5:13 AM 30.2 °F 19.3 °F 26.6 °F 86% 30.16 in 10.0 mi NW 15.0 mph - N/A   Overcast
5:34 AM 30.2 °F 18.5 °F 26.6 °F 86% 30.17 in 10.0 mi NW 17.3 mph - N/A   Mostly Cloudy
5:53 AM 30.2 °F 18.1 °F 26.6 °F 86% 30.16 in 10.0 mi NW 18.4 mph 23.0 mph N/A   Overcast
6:13 AM 30.2 °F 19.3 °F 26.6 °F 86% 30.17 in 10.0 mi NW 15.0 mph 25.3 mph N/A   Mostly Cloudy
6:34 AM 30.2 °F 19.8 °F 24.8 °F 80% 30.20 in 10.0 mi NW 13.8 mph 24.2 mph N/A   Overcast
7:13 AM 30.2 °F 19.3 °F 24.8 °F 80% 30.22 in 10.0 mi NW 15.0 mph - N/A   Overcast
7:34 AM 30.2 °F 18.9 °F 24.8 °F 80% 30.25 in 10.0 mi NW 16.1 mph 19.6 mph N/A   Overcast
7:53 AM 30.2 °F 18.9 °F 24.8 °F 80% 30.28 in 10.0 mi NW 16.1 mph 20.7 mph N/A   Overcast
8:13 AM 30.2 °F 21.3 °F 24.8 °F 80% 30.30 in 10.0 mi NW 10.4 mph - N/A   Overcast
8:33 AM 30.2 °F 18.5 °F 24.8 °F 80% 30.31 in 10.0 mi NW 17.3 mph - N/A   Overcast
8:53 AM 30.2 °F 19.8 °F 26.6 °F 86% 30.32 in 10.0 mi NW 13.8 mph - N/A   Mostly Cloudy
9:13 AM 30.2 °F 20.2 °F 24.8 °F 80% 30.34 in 7.0 mi NW 12.7 mph - N/A Snow Light Snow
9:33 AM 30.2 °F 18.9 °F 26.6 °F 86% 30.34 in 7.0 mi NW 16.1 mph 20.7 mph N/A Snow Light Snow
9:53 AM 30.2 °F 19.3 °F 24.8 °F 80% 30.35 in 10.0 mi NW 15.0 mph 20.7 mph N/A Snow Light Snow
10:13 AM 30.2 °F 18.1 °F 24.8 °F 80% 30.36 in 10.0 mi NW 18.4 mph 21.9 mph N/A Snow Light Snow
10:33 AM 30.2 °F 18.5 °F 26.6 °F 86% 30.37 in 10.0 mi NW 17.3 mph 21.9 mph N/A   Mostly Cloudy
10:53 AM 30.2 °F 18.9 °F 26.6 °F 86% 30.38 in 10.0 mi NW 16.1 mph - N/A   Mostly Cloudy
11:13 AM 32.0 °F 20.8 °F 26.6 °F 80% 30.38 in 10.0 mi NW 17.3 mph - N/A   Mostly Cloudy
11:33 AM 32.0 °F 22.1 °F 26.6 °F 80% 30.39 in 10.0 mi NW 13.8 mph - N/A   Mostly Cloudy
11:53 AM 32.0 °F 21.2 °F 28.4 °F 87% 30.40 in 10.0 mi NW 16.1 mph - N/A   Overcast
12:13 PM 32.0 °F 20.8 °F 26.6 °F 80% 30.40 in 10.0 mi NW 17.3 mph 23.0 mph N/A   Overcast
12:33 PM 32.0 °F 20.8 °F 26.6 °F 80% 30.40 in 10.0 mi NW 17.3 mph 21.9 mph N/A   Overcast
12:53 PM 33.8 °F 23.9 °F 28.4 °F 81% 30.42 in 10.0 mi NW 15.0 mph 20.7 mph N/A   Overcast
1:13 PM 33.8 °F 23.2 °F 26.6 °F 75% 30.43 in 10.0 mi NW 17.3 mph 21.9 mph N/A   Overcast
1:33 PM 33.8 °F 23.9 °F 28.4 °F 81% 30.43 in 10.0 mi NW 15.0 mph - N/A   Overcast
1:53 PM 33.8 °F 25.3 °F 28.4 °F 81% 30.45 in 10.0 mi NW 11.5 mph - N/A   Overcast
2:13 PM 33.8 °F 25.3 °F 26.6 °F 75% 30.47 in 10.0 mi WNW 11.5 mph 18.4 mph N/A   Overcast
2:33 PM 33.8 °F 25.8 °F 28.4 °F 81% 30.48 in 10.0 mi NNW 10.4 mph - N/A   Overcast
2:53 PM 33.8 °F 23.5 °F 28.4 °F 81% 30.48 in 10.0 mi WNW 16.1 mph 19.6 mph N/A   Overcast
3:13 PM 33.8 °F 24.3 °F 26.6 °F 75% 30.49 in 10.0 mi NW 13.8 mph 18.4 mph N/A   Overcast
3:33 PM 33.8 °F 25.3 °F 26.6 °F 75% 30.50 in 10.0 mi NW 11.5 mph - N/A   Overcast
4:13 PM 35.6 °F 27.1 °F 28.4 °F 75% 30.49 in 10.0 mi NNW 12.7 mph 20.7 mph N/A   Mostly Cloudy
4:33 PM 35.6 °F 26.2 °F 28.4 °F 75% 30.49 in 10.0 mi NW 15.0 mph 19.6 mph N/A   Mostly Cloudy
4:53 PM 35.6 °F 26.2 °F 28.4 °F 75% 30.51 in 10.0 mi NNW 15.0 mph - N/A   Overcast
5:13 PM 35.6 °F 26.2 °F 28.4 °F 75% 30.51 in 10.0 mi NNW 15.0 mph - N/A   Overcast
5:33 PM 35.6 °F 27.1 °F 28.4 °F 75% 30.52 in 10.0 mi NNW 12.7 mph - N/A   Overcast
5:53 PM 35.6 °F 27.5 °F 28.4 °F 75% 30.53 in 10.0 mi NNW 11.5 mph 16.1 mph N/A   Overcast
6:13 PM 35.6 °F 27.1 °F 28.4 °F 75% 30.54 in 10.0 mi North 12.7 mph - N/A   Overcast
6:33 PM 35.6 °F 28.6 °F 28.4 °F 75% 30.54 in 10.0 mi North 9.2 mph - N/A   Overcast
6:53 PM 35.6 °F 27.1 °F 28.4 °F 75% 30.54 in 10.0 mi NNW 12.7 mph - N/A   Overcast
7:13 PM 35.6 °F 27.5 °F 26.6 °F 70% 30.55 in 10.0 mi NNW 11.5 mph - N/A   Overcast
7:33 PM 35.6 °F 31.7 °F 28.4 °F 75% 30.55 in 10.0 mi North 4.6 mph 11.5 mph N/A   Overcast
7:53 PM 35.6 °F 29.2 °F 26.6 °F 70% 30.56 in 10.0 mi NNW 8.1 mph - N/A   Mostly Cloudy
8:33 PM 33.8 °F 25.8 °F 28.4 °F 81% 30.58 in 10.0 mi NNW 10.4 mph - N/A   Overcast
8:53 PM 33.8 °F 27.0 °F 26.6 °F 75% 30.58 in 10.0 mi NNW 8.1 mph - N/A   Mostly Cloudy
9:33 PM 32.0 °F 26.4 °F 28.4 °F 87% 30.59 in 10.0 mi NNW 5.8 mph - N/A   Scattered Clouds
9:53 PM 32.0 °F 26.4 °F 28.4 °F 87% 30.60 in 10.0 mi NNW 5.8 mph - N/A   Scattered Clouds
10:13 PM 30.2 °F 23.4 °F 26.6 °F 86% 30.60 in 10.0 mi North 6.9 mph - N/A   Clear
10:33 PM 30.2 °F 23.4 °F 26.6 °F 86% 30.60 in 10.0 mi North 6.9 mph - N/A   Clear
10:53 PM 30.2 °F 22.6 °F 26.6 °F 86% 30.60 in 10.0 mi North 8.1 mph - N/A   Clear
11:13 PM 30.2 °F 25.4 °F 26.6 °F 86% 30.62 in 10.0 mi North 4.6 mph - N/A   Scattered Clouds
11:34 PM 30.2 °F 24.3 °F 26.6 °F 86% 30.62 in 10.0 mi North 5.8 mph - N/A   Mostly Cloudy
11:53 PM 30.2 °F 22.6 °F 26.6 °F 86% 30.62 in 10.0 mi North 8.1 mph - N/A   Mostly Cloudy